• Join FlightAware (Why Join?)
  • Login
  • US Flag 
11:12PM EDT


 

Airport Tracker/Info


-or-


 

Live Flight TrackerFlight Track Log ✈ ASQ6151 ✈ 07-May-2013 ✈ KSAV - KORD

Flight Track Log - Related Links

Times and Time Zones

All times are in EDT time to prevent confusion due to time zone crossing. See the ASQ6151 flight status page for this flight to view local times or setup timezone preferences in your user account.

Time Position Orientation Groundspeed Altitude Reporting Facility
EDT Latitude Longitude Course Direction KTS MPH feet Rate Location/Type
05:46PM 32.1292 -81.2733 North 178 205 1,700  Level Jacksonville Center
05:47PM 32.1750 -81.2850 348° North 210 242 3,700 2,100 Climbing Jacksonville Center
05:48PM 32.2356 -81.2739 North 216 249 5,900 2,160 Climbing Jacksonville Center
05:49PM 32.3106 -81.2628 North 230 265 8,100 1,920 Climbing Jacksonville Center
05:50PM 32.3814 -81.2517 North 252 290 9,800 1,500 Climbing Jacksonville Center
05:51PM 32.4606 -81.2431 North 273 314 11,100 1,080 Climbing Jacksonville Center
05:52PM 32.6578 -81.1500 North  Level FlightAware Approximate
05:52PM 32.5419 -81.2317 North 313 360 12,000  Level Jacksonville Center
05:53PM 32.6439 -81.2197 North 331 381 13,400 1,200 Climbing Jacksonville Center
05:54PM 32.7336 -81.2058 North 338 389 14,500 1,200 Climbing Jacksonville Center
05:55PM 32.8314 -81.1917 North 351 404 15,800 1,260 Climbing Jacksonville Center
05:56PM 32.9317 -81.1797 North 351 404 17,100 1,140 Climbing Jacksonville Center
05:57PM 33.0336 -81.1656 North 351 404 18,100 960 Climbing Jacksonville Center
05:58PM 33.1356 -81.1511 North 362 417 19,100 960 Climbing Jacksonville Center
05:59PM 33.2439 -81.1367 North 373 429 20,100 960 Climbing Jacksonville Center
06:00PM 33.3525 -81.1244 North 379 436 21,100 960 Climbing Jacksonville Center
06:01PM 33.4608 -81.1100 North 389 448 22,100 960 Climbing Jacksonville Center
06:02PM 33.5711 -81.0953 North 389 448 23,100 960 Climbing Jacksonville Center
06:03PM 33.6836 -81.0806 North 395 455 24,100 900 Climbing Jacksonville Center
06:04PM 33.8044 -81.0631 North 395 455 25,000 420 Climbing Jacksonville Center
06:05PM 33.9153 -81.0758 355° North 395 455 25,000 660 Level Jacksonville Center
06:06PM 34.0242 -81.1186 342° North 399 459 26,400 1,440 Climbing Jacksonville Center
06:07PM 34.1125 -81.1569 340° North 387 445 27,900 1,140 Climbing Jacksonville Center
06:09PM 34.3239 -81.2444 341° North 355 409 30,100 1,020 Climbing Atlanta Center
06:10PM 34.4208 -81.2889 339° North 367 422 31,200 1,140 Climbing Atlanta Center
06:11PM 34.5097 -81.3417 334° Northwest 360 414 32,400 1,020 Climbing Atlanta Center
06:12PM 34.5967 -81.4019 330° Northwest 360 414 33,300 900 Climbing Atlanta Center
06:13PM 34.6772 -81.4600 329° Northwest 365 420 34,200 840 Climbing Atlanta Center
06:14PM 34.7639 -81.5206 330° Northwest 365 420 35,000 660 Climbing Atlanta Center
06:15PM 34.8528 -81.5811 331° Northwest 365 420 35,600 480 Climbing Atlanta Center
06:16PM 34.9436 -81.6392 332° Northwest 365 420 36,000 180 Climbing Atlanta Center
06:17PM 35.0347 -81.7050 329° Northwest 373 429 36,000  Level Atlanta Center
06:18PM 35.1425 -81.7781 331° Northwest 388 447 36,000  Level Atlanta Center
06:19PM 35.2439 -81.8467 331° Northwest 408 470 36,000  Level Atlanta Center
06:20PM 35.3472 -81.9178 331° Northwest 427 491 36,000  Level Atlanta Center
06:21PM 35.4528 -81.9914 330° Northwest 433 498 36,000  Level Atlanta Center
06:22PM 35.5606 -82.0653 331° Northwest 433 498 36,000  Level Atlanta Center
06:23PM 35.6658 -82.1369 331° Northwest 438 504 36,000  Level Atlanta Center
06:24PM 35.7628 -82.2014 332° Northwest 438 504 36,000  Level Atlanta Center
06:25PM 35.8661 -82.2758 330° Northwest 425 489 36,000  Level Atlanta Center
06:26PM 35.9672 -82.3481 330° Northwest 425 489 36,000  Level Atlanta Center
06:27PM 36.0747 -82.4228 331° Northwest 425 489 36,000  Level Atlanta Center
06:28PM 36.1800 -82.4978 330° Northwest 430 495 36,000  Level Atlanta Center
06:29PM 36.2872 -82.5731 330° Northwest 430 495 36,000  Level Atlanta Center
06:31PM 36.5025 -82.7250 330° Northwest 438 504 36,000  Level Indianapolis Center
06:33PM 36.6094 -82.8008 330° Northwest 439 505 36,000  Level Indianapolis Center
06:34PM 36.7164 -82.8769 330° Northwest 440 506 36,000  Level Indianapolis Center
06:35PM 36.8231 -82.9544 330° Northwest 437 503 36,000  Level Indianapolis Center
06:36PM 36.9242 -83.0442 325° Northwest 438 504 36,000  Level Indianapolis Center
06:37PM 37.0303 -83.1586 319° Northwest 429 494 36,000  Level Indianapolis Center
06:38PM 37.1294 -83.2331 329° Northwest 414 476 36,000  Level Indianapolis Center
06:39PM 37.2308 -83.3039 331° Northwest 414 476 36,000  Level Indianapolis Center
06:40PM 37.3306 -83.3733 331° Northwest 410 472 36,000  Level Indianapolis Center
06:41PM 37.4314 -83.4442 331° Northwest 412 474 36,000  Level Indianapolis Center
06:42PM 37.5306 -83.5122 331° Northwest 407 468 36,000  Level Indianapolis Center
06:43PM 37.6492 -83.5964 331° Northwest 418 481 36,000  Level Indianapolis Center
06:44PM 37.7531 -83.6689 331° Northwest 423 487 36,000  Level Indianapolis Center
06:45PM 37.8567 -83.7417 331° Northwest 425 489 36,000  Level Indianapolis Center
06:46PM 37.9586 -83.8136 331° Northwest 417 480 36,000  Level Indianapolis Center
06:47PM 38.0569 -83.8883 329° Northwest 411 473 36,000  Level Indianapolis Center
06:48PM 38.1525 -84.0108 315° West 416 479 36,000  Level Indianapolis Center
06:49PM 38.2383 -84.1111 317° Northwest 418 481 36,000  Level Indianapolis Center
06:50PM 38.3250 -84.2128 317° Northwest 421 484 36,000  Level Indianapolis Center
06:51PM 38.4122 -84.3158 317° Northwest 426 490 36,000  Level Indianapolis Center
06:52PM 38.4997 -84.4194 317° Northwest 428 493 36,000  Level Indianapolis Center
06:53PM 38.5894 -84.5189 319° Northwest 428 493 36,000  Level Indianapolis Center
06:54PM 38.6781 -84.6483 311° West 429 494 36,000  Level Indianapolis Center
06:55PM 38.7422 -84.7739 303° West 424 488 36,000  Level Indianapolis Center
06:56PM 38.8097 -84.9014 304° West 431 496 36,000  Level Indianapolis Center
06:57PM 38.8778 -85.0278 305° West 432 497 36,000 -540 Level Indianapolis Center
06:58PM 38.9453 -85.1581 304° West 439 505 35,000 -1,320 Descending Indianapolis Center
06:59PM 39.0511 -85.2739 320° Northwest 416 479 33,300 -960 Descending Indianapolis Center
07:00PM 39.1642 -85.3058 348° North 416 479 33,000 -960 Descending Indianapolis Center
07:01PM 39.2775 -85.3375 348° North 418 481 31,400 -1,380 Descending Indianapolis Center
07:03PM 39.3944 -85.3694 348° North 429 494 30,200 -720 Descending Indianapolis Center
07:04PM 39.5117 -85.4017 348° North 432 497 30,000 -540 Descending Indianapolis Center
07:05PM 39.6500 -85.4403 348° North 428 493 29,100 -1,020 Descending Indianapolis Center
07:06PM 39.7683 -85.4739 348° North 434 499 27,900 -1,320 Descending Indianapolis Center
07:07PM 39.8892 -85.5078 348° North 445 512 26,400 -960 Descending Indianapolis Center
07:08PM 40.0106 -85.5414 348° North 449 517 26,000 -240 Descending Indianapolis Center
07:09PM 40.1278 -85.5742 348° North 440 506 26,000 -360 Level Indianapolis Center
07:09PM 40.2222 -85.6008 348° North 438 504 25,400 -960 Descending Chicago Center
07:10PM 40.3425 -85.6336 348° North 443 510 24,400 -780 Descending Chicago Center
07:11PM 40.4608 -85.6686 347° North 441 507 23,900 -720 Descending Chicago Center
07:12PM 40.5586 -85.7544 326° Northwest 433 498 23,000 -480 Descending Chicago Center
07:13PM 40.6306 -85.8814 307° West 435 501 23,000  Level Chicago Center
07:15PM 40.7058 -86.0142 307° West 438 504 23,000  Level Chicago Center
07:16PM 40.7953 -86.1714 307° West 445 512 23,000  Level Chicago Center
07:17PM 40.8686 -86.3003 307° West 440 506 23,000  Level Chicago Center
07:18PM 40.9417 -86.4311 307° West 442 509 23,000 -240 Level Chicago Center
07:19PM 41.0142 -86.5611 306° West 439 505 22,500 -1,020 Descending Chicago Center
07:20PM 41.0858 -86.6897 307° West 433 498 20,900 -1,800 Descending Chicago Center
07:21PM 41.1653 -86.8300 307° West 415 478 18,900 -2,340 Descending Chicago Center
07:22PM 41.2311 -86.9481 307° West 403 464 16,100 -2,880 Descending Chicago Center
07:23PM 41.2922 -87.0628 305° West 387 445 13,000 -2,520 Descending Chicago Center
07:24PM 41.3522 -87.1719 306° West 372 428 11,000 -1,440 Descending Chicago Center
07:24PM 41.3833 -87.2167 313° West 360 414 11,100 60 Climbing Chicago TRACON
07:25PM 41.4500 -87.3000 317° Northwest 357 411 11,100  Level Chicago TRACON
07:26PM 41.5333 -87.3833 323° Northwest 352 405 11,100 -60 Level Chicago TRACON
07:27PM 41.5856 -87.4494 317° Northwest 350 403 11,000 -60 Descending Chicago Center
07:28PM 41.6606 -87.5328 320° Northwest 355 409 11,000 -240 Level Chicago Center
07:29PM 41.7428 -87.6267 320° Northwest 320 368 10,600 -1,200 Descending Chicago Center
07:30PM 41.8167 -87.7000 324° Northwest 283 326 8,500 -1,680 Descending Chicago TRACON
07:31PM 41.8500 -87.7833 298° West 278 320 7,100 -780 Descending Chicago TRACON
07:32PM 41.8333 -87.8500 251° West 205 236 7,000 -600 Descending Chicago TRACON
07:33PM 41.8000 -87.9167 236° Southwest 192 221 5,900 -960 Descending Chicago TRACON
07:34PM 41.7564 -87.9628 218° Southwest 194 223 5,100 -480 Descending Chicago Center
07:35PM 41.7208 -88.0133 227° Southwest 190 219 5,000 -300 Descending Chicago Center
07:36PM 41.7372 -88.0700 291° West 184 212 4,500 -480 Descending Chicago Center
07:37PM 41.7781 -88.0906 339° North 187 215 4,000 -240 Descending Chicago Center
07:38PM 41.8208 -88.0556 31° Northeast 185 213 4,000 -480 Level Chicago Center
07:39PM 41.8647 -88.0047 41° Northeast 179 206 3,100 -960 Descending Chicago Center
07:40PM 41.9000 -87.9667 39° Northeast 165 190 2,300 -900 Descending Chicago TRACON
07:41PM 41.9167 -87.9333 56° Northeast 135 155 1,500 -780 Descending Chicago TRACON
07:42PM 41.9500 -87.9000 37° Northeast 134 154 800 -720 Descending Chicago TRACON
07:44PM 41.9667 -87.9000 312° West  Level FlightAware Approximate